Edmonton/Morinville (Mike's Field)

CMN6 · 艾伯塔, 加拿大

罗盘
风向 的 风向 270° Edmonton/Morinville (Mike's Field) 16/34
风: 5 kt, 2 beaufort

2 kt

5 kt
改变
0 2.000 4.000 6.000 8.000 10.000
BKN 1.800 ft
OVC 10.000 ft
SPECI CYED 020331Z 27005KT 10SM IC BKN018 OVC100 M22/M25 A2983 RMK SC7AS1 DENSITY ALT -2271FT LAST OBS /NEXT 021400 UTC SLP172

METAR Edmonton/Morinville (Mike's Field) - CMN6

Edmonton/Morinville (Mike's Field)是,加拿大中的小机场。 该机场有一条跑道: 16/34. 该领域的国际民航组织标志是CMN6.

这份报告是针对2022年12月1日 20:31, 当地时间在Edmonton (CFB Namao) Heliport进行的。

机场观察

风向为270°,速度为5 kt。

可见度为10 mi。

有碎云在1.800 ft的高度 和 乌云密布在10.000 ft的高度。 破损或更高的上限为1.800 ft。

当前天气为冰晶。 温度为-22 °C,阵风为-33 °C。 露点为-25 °C,相对湿度为77%。 海平面上的气压为29,83 inHg (QNH)。

白天

今天,太阳从08:30升起,在16:16降落。 这适用于Edmonton/Morinville (Mike's Field),世界夏令时可能有所不同。 当地时间与世界标准时间之间的时差为-7 小时。 当前,没有夏令时有效。

公司介绍

我们没有关于这个机场的公司信息。

体会

到Vliegles.nl去找飞行课程,跳伞和其他飞行体验。 浏览页面,了解Edmonton/Morinville (Mike's Field)附近所有可用的活动。 你也可以使用搜索功能来寻找你所在地附近的特定飞行课程、跳伞或其他飞行体验。

跑道

Id 标题 侧风 逆风 侧风 %
16/34 160°-340° 5 kt 2 kt 94 %

逆风成分最大的方向会被突出显示,并用于横风计算。 这并不一定意味着这个方向在使用。

乌云

1.800 ft BKN 碎云
10.000 ft OVC 乌云密布

温度 & 天气

天气 冰晶
温度 -22 °C
露点 -25 °C
相对湿度 77%
风寒 -33 °C
Kp-index 3 (0-9)

评论

SLP172海平面压力为30,04 inHg (30,04 inHg)
SC7AS1 DENSITY ALT -2271FT LAST OBS /NEXT 021400 UTC

白天

日出
08:29 (11:21)
中午
12:23
日落
16:17

小工具

你想在你的网站上有一个关于Edmonton/Morinville (Mike's Field)的当前航空天气(METAR)的小部件吗?

显示HTML代码

我们和第三方通过cookies跟踪您在我们网站上的互联网行为。如果你继续,我们认为你同意我们的饼干政策